Latest Weather Observations for Kadina

IDS60801

Issued at 4:52 am CDT Tuesday 19 January 2021 (issued every 10 minutes, with the page automatically refreshed every 10 minutes)

About weather observations | Map of weather stations | Latest weather observations for SA | Other Formats
Station Details ID: 022050 Name: KADINA AWS Lat: -33.97 Lon: 137.66 Height: 41.14 m
Data from the previous 72 hours. | See also: Recent months at Kadina
Date/Time
CDT
Temp
°C
App
Temp
°C
Dew
Point
°C
Rel
Hum
%
Delta-T
°C
Wind Press
QNH
hPa
Press
MSL
hPa
Rain since
9am
mm
Dir  Spd
km/h
Gust
km/h
Spd
kts
Gust
kts
19/04:30am 12.1 9.6 9.7 85 1.2 S 13 15 7 8 1021.0 1020.8 0.0
19/04:00am 14.0 11.2 11.2 83 1.5 SSE 17 20 9 11 1020.7 1020.5 0.0
19/03:30am 14.2 11.4 11.5 84 1.4 SSE 17 20 9 11 1020.9 1020.7 0.0
19/03:00am 14.0 11.2 11.5 85 1.3 SSE 17 20 9 11 1020.9 1020.7 0.0
19/02:30am 13.8 10.6 11.3 85 1.3 SSE 19 20 10 11 1021.0 1020.8 0.0
19/02:00am 13.7 11.6 11.0 84 1.4 SSE 13 17 7 9 1021.2 1021.0 0.0
19/01:30am 13.9 10.7 11.2 84 1.4 S 19 22 10 12 1021.2 1021.0 0.0
19/01:00am 14.0 12.2 11.0 82 1.6 S 11 15 6 8 1021.6 1021.4 0.0
19/12:30am 14.5 12.1 11.3 81 1.7 S 15 20 8 11 1021.5 1021.3 0.0
19/12:00am 14.7 11.5 11.3 80 1.8 SSE 19 24 10 13 1021.4 1021.2 0.0
 
Date/Time
CDT
Temp
°C
App
Temp
°C
Dew
Point
°C
Rel
Hum
%
Delta-T
°C
Wind Press
QNH
hPa
Press
MSL
hPa
Rain since
9am
mm
Dir  Spd
km/h
Gust
km/h
Spd
kts
Gust
kts
18/11:30pm 15.0 11.6 11.4 79 1.9 SSE 20 26 11 14 1021.5 1021.3 0.0
18/11:00pm 15.5 11.9 11.7 78 2.1 S 22 30 12 16 1021.5 1021.3 0.0
18/10:30pm 16.0 12.1 12.2 78 2.1 SSE 24 32 13 17 1021.5 1021.3 0.0
18/10:00pm 16.5 12.7 12.3 76 2.3 SSE 24 33 13 18 1021.4 1021.2 0.0
18/09:30pm 17.1 13.2 12.2 73 2.7 SSE 24 35 13 19 1021.1 1020.9 0.0
18/09:00pm 17.9 14.4 12.1 69 3.2 SSE 22 32 12 17 1020.7 1020.5 0.0
18/08:30pm 19.0 14.6 11.8 63 4.0 SSE 26 32 14 17 1020.2 1020.0 0.0
18/08:00pm 20.7 15.2 11.9 57 4.9 SSE 32 43 17 23 1019.8 1019.6 0.0
18/07:30pm 21.7 17.3 14.1 62 4.4 SSW 30 41 16 22 1019.6 1019.4 0.0
18/07:00pm 22.3 17.3 13.9 59 4.9 SSW 33 41 18 22 1019.2 1019.0 0.0
18/06:30pm 22.6 17.5 13.7 57 5.2 SSW 33 44 18 24 1019.0 1018.8 0.0
18/06:00pm 23.8 18.2 13.4 52 6.0 SW 35 44 19 24 1018.9 1018.7 0.0
18/05:30pm 23.2 17.4 12.8 52 6.0 SW 35 46 19 25 1019.0 1018.8 0.0
18/05:12pm 25.7 20.1 12.2 43 7.8 SSW 33 52 18 28 1019.0 1018.8 0.0
18/05:00pm 25.5 20.6 11.3 41 8.0 S 28 41 15 22 1019.2 1019.0 0.0
18/04:30pm 25.9 19.9 10.1 37 8.8 SSE 32 43 17 23 1019.4 1019.2 0.0
18/04:00pm 26.0 21.2 10.2 37 8.8 S 26 44 14 24 1019.5 1019.3 0.0
18/03:35pm 26.5 21.9 12.2 41 8.3 S 28 54 15 29 1019.6 1019.4 0.0
18/03:30pm 24.6 20.5 11.5 44 7.4 S 24 43 13 23 1019.8 1019.6 0.0
18/03:20pm 26.5 21.2 11.4 39 8.6 SSW 30 52 16 28 1019.9 1019.7 0.0
18/03:00pm 25.2 20.1 9.1 36 8.7 SSE 26 33 14 18 1020.2 1020.0 0.0
18/02:56pm 25.9 20.6 9.7 36 8.9 S 28 46 15 25 1020.1 1019.9 0.0
18/02:30pm 26.0 22.4 11.7 41 8.1 S 22 35 12 19 1020.5 1020.3 0.0
18/02:00pm 25.2 20.8 9.1 36 8.8 SE 22 35 12 19 1020.7 1020.5 0.0
18/01:30pm 24.7 21.1 9.8 39 8.2 SE 19 33 10 18 1020.9 1020.7 0.0
18/01:00pm 24.1 21.4 10.4 42 7.6 SSE 15 33 8 18 1021.1 1020.9 0.0
18/12:30pm 23.8 20.4 10.5 43 7.3 SSE 19 28 10 15 1021.4 1021.2 0.0
18/12:00pm 22.7 19.2 10.2 45 6.8 SSE 19 30 10 16 1021.6 1021.4 0.0
18/11:30am 22.0 18.4 10.5 48 6.3 SSE 20 30 11 16 1021.9 1021.7 0.0
18/11:00am 21.0 17.0 10.5 51 5.7 SSE 22 30 12 16 1022.0 1021.8 0.0
18/10:30am 20.6 17.2 11.2 55 5.2 SSE 20 28 11 15 1022.2 1022.1 0.0
18/10:00am 20.5 17.3 11.4 56 5.0 S 19 30 10 16 1022.2 1022.1 0.0
18/09:30am 19.1 16.2 10.9 59 4.4 SE 17 24 9 13 1022.2 1022.1 0.0
18/09:00am 17.6 15.6 11.6 68 3.3 E 13 20 7 11 1022.1 1022.0 0.0
18/08:30am 16.1 14.8 11.1 72 2.7 E 9 13 5 7 1022.1 1022.0 0.0
18/08:00am 14.9 12.7 10.7 76 2.2 E 13 17 7 9 1021.8 1021.6 0.0
18/07:30am 14.3 11.4 11.1 81 1.7 S 17 20 9 11 1021.5 1021.3 0.0
18/07:00am 11.6 8.3 9.7 88 1.0 SSW 17 19 9 10 1021.3 1021.1 0.0
18/06:30am 10.7 7.2 8.6 87 1.0 SSW 17 19 9 10 1021.0 1020.8 0.0
18/06:00am 11.0 7.9 8.9 87 1.0 S 15 17 8 9 1020.7 1020.5 0.0
18/05:30am 10.8 7.3 8.7 87 1.0 S 17 19 9 10 1020.4 1020.2 0.0
18/05:00am 10.9 7.4 8.8 87 1.0 SSW 17 20 9 11 1020.2 1020.0 0.0
18/04:30am 11.1 7.7 9.0 87 1.0 S 17 19 9 10 1020.2 1020.0 0.0
18/04:00am 11.2 8.2 9.1 87 1.0 SSW 15 17 8 9 1020.3 1020.1 0.0
18/03:30am 11.6 8.6 9.3 86 1.2 S 15 17 8 9 1020.2 1020.0 0.0
18/03:00am 11.7 9.1 9.3 85 1.2 S 13 15 7 8 1020.4 1020.2 0.0
18/02:30am 12.4 10.0 10.0 85 1.2 S 13 17 7 9 1020.6 1020.4 0.0
18/02:00am 13.2 10.4 10.0 81 1.7 S 15 19 8 10 1020.8 1020.6 0.0
18/01:30am 14.1 11.1 10.7 80 1.8 SSE 17 19 9 10 1021.0 1020.8 0.0
18/01:00am 14.6 11.8 11.2 80 1.8 SSE 17 20 9 11 1021.3 1021.1 0.0
18/12:30am 15.0 12.6 11.4 79 1.9 SSE 15 19 8 10 1021.5 1021.3 0.0
18/12:00am 15.5 12.8 11.7 78 2.0 SSE 17 22 9 12 1021.5 1021.3 0.0
 
Date/Time
CDT
Temp
°C
App
Temp
°C
Dew
Point
°C
Rel
Hum
%
Delta-T
°C
Wind Press
QNH
hPa
Press
MSL
hPa
Rain since
9am
mm
Dir  Spd
km/h
Gust
km/h
Spd
kts
Gust
kts
17/11:30pm 15.9 12.7 11.9 77 2.2 SE 20 26 11 14 1021.5 1021.3 0.0
17/11:00pm 16.4 13.3 12.2 76 2.3 SSE 20 26 11 14 1021.7 1021.5 0.0
17/10:30pm 16.7 13.2 12.3 75 2.4 SSE 22 30 12 16 1021.6 1021.4 0.0
17/10:00pm 17.2 13.7 12.1 72 2.8 SSE 22 33 12 18 1021.6 1021.4 0.0
17/09:30pm 18.0 13.4 12.2 69 3.2 SSE 28 35 15 19 1021.2 1021.0 0.0
17/09:00pm 19.6 16.9 12.8 65 3.8 SSE 19 24 10 13 1021.0 1020.8 0.0
17/08:30pm 19.5 16.3 13.2 67 3.6 SSW 22 30 12 16 1020.7 1020.5 0.0
17/08:00pm 20.0 15.7 13.2 65 3.9 SSW 28 35 15 19 1020.5 1020.3 0.0
17/07:30pm 20.7 15.6 13.2 62 4.3 SW 32 39 17 21 1020.0 1019.8 0.0
17/07:00pm 21.3 16.0 13.0 59 4.7 SW 33 41 18 22 1019.6 1019.4 0.0
17/06:30pm 22.1 16.4 12.9 56 5.3 SW 35 44 19 24 1019.4 1019.2 0.0
17/06:00pm 22.6 16.7 12.5 53 5.7 SW 35 44 19 24 1019.3 1019.1 0.0
17/05:30pm 22.7 16.5 13.7 56 5.2 SW 39 50 21 27 1019.2 1019.0 0.0
17/05:00pm 23.5 17.6 13.7 54 5.7 SW 37 46 20 25 1019.3 1019.1 0.0
17/04:30pm 23.3 17.6 12.9 52 6.0 SW 35 46 19 25 1019.4 1019.2 0.0
17/04:00pm 23.3 16.9 13.2 53 5.8 SW 39 48 21 26 1019.6 1019.4 0.0
17/03:30pm 23.5 17.2 13.4 53 5.9 SW 39 52 21 28 1019.9 1019.7 0.0
17/03:00pm 23.3 16.4 12.9 52 6.0 SW 41 54 22 29 1020.1 1019.9 0.0
17/02:30pm 23.9 18.1 12.8 49 6.4 SW 35 48 19 26 1020.3 1020.1 0.0
17/02:00pm 22.5 16.4 13.0 55 5.5 WSW 37 50 20 27 1020.5 1020.3 0.0
17/01:30pm 22.9 16.8 13.1 54 5.6 SW 37 48 20 26 1020.9 1020.7 0.0
17/01:00pm 22.3 16.5 12.8 55 5.4 WSW 35 46 19 25 1021.3 1021.1 0.0
17/12:30pm 22.2 17.1 13.0 56 5.3 SW 32 41 17 22 1021.6 1021.4 0.0
17/12:00pm 22.5 18.9 10.0 45 6.8 SSW 19 28 10 15 1021.9 1021.7 0.0
17/11:30am 21.0 18.0 10.5 51 5.7 S 17 30 9 16 1022.1 1022.0 0.0
17/11:00am 21.9 19.2 11.6 52 5.8 S 17 26 9 14 1022.3 1022.2 0.0
17/10:30am 20.9 18.3 12.1 57 4.9 SSW 17 30 9 16 1022.5 1022.4 0.0
17/10:00am 19.8 16.4 11.3 58 4.7 SSE 20 28 11 15 1022.6 1022.5 0.0
17/09:30am 19.5 16.3 11.3 59 4.5 SSE 19 24 10 13 1022.6 1022.5 0.0
17/09:00am 18.7 14.9 11.0 61 4.2 S 22 32 12 17 1022.5 1022.4 0.0
17/08:30am 18.2 14.1 11.3 64 3.7 SSW 24 33 13 18 1022.1 1022.0 0.0
17/08:00am 17.2 13.5 11.5 69 3.1 S 22 28 12 15 1022.0 1021.8 0.0
17/07:30am 16.7 13.3 11.2 70 3.0 S 20 24 11 13 1021.8 1021.6 0.0
17/07:00am 16.4 13.1 10.9 70 2.9 SSW 19 24 10 13 1021.4 1021.2 0.0
17/06:30am 16.4 13.9 10.9 70 2.9 S 15 20 8 11 1021.1 1020.9 0.0
17/06:00am 16.5 13.7 11.4 72 2.7 S 17 22 9 12 1021.0 1020.8 0.0
17/05:30am 16.5 13.2 11.6 73 2.7 S 20 24 11 13 1020.7 1020.5 0.0
17/05:00am 16.7 13.5 11.2 70 3.0 SSE 19 24 10 13 1020.4 1020.2 0.0
17/04:30am 16.8 13.5 11.7 72 2.8 SSE 20 26 11 14 1020.3 1020.1 0.0
17/04:00am 16.2 13.9 11.6 74 2.5 S 15 17 8 9 1020.2 1020.0 0.0
17/03:30am 14.9 12.4 11.1 78 2.0 SSW 15 17 8 9 1020.4 1020.2 0.0
17/03:00am 14.3 12.2 11.1 81 1.7 SSW 13 17 7 9 1020.3 1020.1 0.0
17/02:30am 13.6 10.9 10.4 81 1.7 SSW 15 17 8 9 1020.4 1020.2 0.0
17/02:00am 13.5 11.8 9.9 79 1.9 SSW 9 11 5 6 1020.6 1020.4 0.0
17/01:30am 14.2 12.3 10.6 79 1.9 S 11 15 6 8 1020.6 1020.4 0.0
17/01:00am 14.3 11.6 10.5 78 2.0 S 15 19 8 10 1020.7 1020.5 0.0
17/12:30am 14.4 12.1 10.4 77 2.1 S 13 17 7 9 1020.9 1020.7 0.0
17/12:00am 14.9 11.8 10.3 74 2.4 SSE 17 20 9 11 1021.0 1020.8 0.0
 
Date/Time
CDT
Temp
°C
App
Temp
°C
Dew
Point
°C
Rel
Hum
%
Delta-T
°C
Wind Press
QNH
hPa
Press
MSL
hPa
Rain since
9am
mm
Dir  Spd
km/h
Gust
km/h
Spd
kts
Gust
kts
16/11:30pm 15.3 11.9 10.5 73 2.5 SSE 19 26 10 14 1021.0 1020.8 0.0
16/11:00pm 15.6 12.0 10.6 72 2.6 SSE 20 30 11 16 1020.9 1020.7 0.0
16/10:30pm 15.7 11.6 10.2 70 2.9 SSE 22 28 12 15 1021.0 1020.8 0.0
16/10:00pm 15.9 11.8 10.0 68 3.1 SSE 22 28 12 15 1020.7 1020.5 0.0
16/09:30pm 16.4 11.8 9.8 65 3.4 SSE 24 28 13 15 1020.6 1020.4 0.0
16/09:00pm 16.9 12.3 9.6 62 3.8 SSE 24 32 13 17 1020.3 1020.1 0.0
16/08:30pm 18.0 12.5 9.1 56 4.6 SSE 28 35 15 19 1020.0 1019.8 0.0
16/08:00pm 19.4 13.9 9.0 51 5.5 SSE 28 35 15 19 1019.7 1019.5 0.0
16/07:30pm 20.7 15.5 9.0 47 6.2 SE 26 33 14 18 1019.1 1018.9 0.0
16/07:00pm 21.2 15.5 8.5 44 6.7 SSE 28 35 15 19 1018.6 1018.4 0.0
16/06:30pm 22.1 16.1 7.1 38 7.7 SE 28 37 15 20 1018.3 1018.1 0.0
16/06:00pm 22.6 16.5 6.8 36 8.1 SSE 28 41 15 22 1018.3 1018.1 0.0
16/05:30pm 22.8 16.3 6.6 35 8.3 SE 30 43 16 23 1018.2 1018.0 0.0
16/05:00pm 23.1 16.2 6.4 34 8.6 SSE 32 46 17 25 1018.3 1018.1 0.0
16/04:41pm 23.6 17.5 6.4 33 8.8 SSE 28 46 15 25 1018.4 1018.2 0.0
16/04:30pm 23.5 17.2 5.9 32 8.9 SSE 28 41 15 22 1018.5 1018.3 0.0
16/04:00pm 23.1 16.6 8.0 38 8.0 S 32 59 17 32 1018.8 1018.6 0.0
16/03:52pm 23.3 16.6 7.4 36 8.3 S 32 59 17 32 1018.3 1018.1 0.0
16/03:41pm 23.4 16.8 7.9 37 8.2 SSW 32 56 17 30 1018.9 1018.7 0.0
16/03:39pm 22.2 16.0 9.4 44 6.9 SSW 32 56 17 30 1019.0 1018.8 0.0
16/03:36pm 22.3 17.1 8.8 42 7.2 SSW 26 56 14 30 1018.8 1018.6 0.0
16/03:30pm 23.1 17.3 6.4 34 8.5 S 26 46 14 25 1019.2 1019.0 0.0
16/03:08pm 24.1 16.6 8.1 36 8.5 SSW 37 56 20 30 1019.0 1018.8 0.0
16/03:00pm 23.6 17.0 7.7 36 8.3 SSW 32 43 17 23 1019.3 1019.1 0.0
16/02:46pm 22.6 15.8 6.8 36 8.1 SW 32 52 17 28 1019.3 1019.1 0.0
16/02:44pm 22.5 15.7 7.5 38 7.8 SW 33 50 18 27 1019.5 1019.3 0.0
16/02:30pm 22.8 15.5 7.0 36 8.1 SW 35 72 19 39 1019.3 1019.1 0.0
16/02:29pm 23.2 16.0 7.7 37 8.1 SW 35 50 19 27 1019.5 1019.3 0.0
16/02:25pm 22.8 15.5 7.4 37 8.0 SW 35 52 19 28 1019.6 1019.4 0.0
16/02:19pm 21.0 13.4 7.6 42 6.9 SW 37 52 20 28 1019.6 1019.4 0.0
16/02:06pm 21.9 16.5 6.2 36 7.9 SSW 24 52 13 28 1019.5 1019.3 0.0
16/02:00pm 22.8 18.4 6.6 35 8.3 S 19 37 10 20 1020.1 1019.9 0.0
16/01:30pm 21.9 15.3 7.7 40 7.4 WSW 32 56 17 30 1020.2 1020.0 0.0
16/01:27pm 21.3 15.2 6.8 39 7.4 SSW 28 56 15 30 1020.0 1019.8 0.0
16/01:00pm 22.0 17.7 5.4 34 8.3 SSE 17 30 9 16 1020.4 1020.2 0.0
16/12:30pm 21.6 16.5 5.9 36 7.9 ESE 22 41 12 22 1020.6 1020.4 0.0
16/12:00pm 21.0 14.5 4.6 34 8.0 SE 28 46 15 25 1020.6 1020.4 0.0
16/11:56am 21.2 14.7 4.7 34 8.1 SE 28 46 15 25 1020.6 1020.4 0.0
16/11:53am 21.0 14.5 4.6 34 8.0 SE 28 46 15 25 1020.4 1020.2 0.0
16/11:30am 20.6 16.4 5.8 38 7.3 SSE 17 28 9 15 1020.8 1020.6 0.0
16/11:00am 18.8 14.0 4.9 40 6.7 SSE 19 32 10 17 1020.9 1020.7 0.0
16/10:30am 17.9 13.3 5.8 45 5.9 SSE 19 32 10 17 1021.3 1021.1 0.0
16/10:00am 17.5 12.0 6.1 47 5.6 SSE 24 37 13 20 1021.4 1021.2 0.0
16/09:30am 17.1 11.6 5.7 47 5.5 S 24 30 13 16 1021.5 1021.3 0.0
16/09:00am 16.6 11.1 6.1 50 5.1 S 24 32 13 17 1021.6 1021.4 0.0
16/08:30am 15.9 10.0 5.8 51 4.8 SSW 26 32 14 17 1021.2 1021.0 0.0
16/08:00am 15.5 10.2 5.1 50 4.9 SSW 22 30 12 16 1020.9 1020.7 0.0
16/07:30am 15.2 10.8 4.9 50 4.8 SSW 17 22 9 12 1020.5 1020.3 0.0
16/07:00am 14.5 9.1 4.5 51 4.6 SSW 22 28 12 15 1020.3 1020.1 0.0
16/06:30am 14.7 9.0 4.7 51 4.6 SSW 24 30 13 16 1020.4 1020.2 0.0
16/06:00am 14.7 9.4 5.2 53 4.5 S 22 33 12 18 1020.3 1020.1 0.0
16/05:30am 14.7 10.1 5.8 55 4.2 S 19 24 10 13 1019.9 1019.7 0.0
16/05:00am 14.6 9.9 5.1 53 4.5 SSW 19 24 10 13 1020.0 1019.8 0.0

Other formats

Comma delimited format used in spreadsheet applications
http://www.bom.gov.au/fwo/IDS60801/IDS60801.94685.axf

JavaScript Object Notation format (JSON) in row-major order
http://www.bom.gov.au/fwo/IDS60801/IDS60801.94685.json

Data quality

Most of these data are generated automatically and are frequently updated. Quality checks on data are not normally performed. It is possible for incorrect values to appear. Refer to information at About Latest Weather Observations and please check the disclaimer before using these data.